Time;durP1;ratioP1;P1;durP2;ratioP2;P2;SDS_P1;SDS_P2;PMS_P1;PMS_P2;Temp;Humidity;BMP_temperature;BMP_pressure;BME280_temperature;BME280_humidity;BME280_pressure;Samples;Min_cycle;Max_cycle;Signal;HPM_P1;HPM_P2
2022/04/24 00:02:03;;;;;;;4.47;4.17;;;14.40;54.10;;;;;;941086;151;27341;-73
2022/04/24 00:04:30;;;;;;;4.50;4.10;;;14.30;54.20;;;;;;940808;150;27485;-73
2022/04/24 00:06:56;;;;;;;4.23;3.90;;;14.30;54.20;;;;;;940745;150;27437;-73
2022/04/24 00:09:23;;;;;;;4.53;4.13;;;14.20;54.40;;;;;;940890;151;27338;-73
2022/04/24 00:11:50;;;;;;;4.20;3.90;;;14.10;54.40;;;;;;940340;152;27366;-73
2022/04/24 00:14:17;;;;;;;4.13;3.83;;;14.10;54.30;;;;;;940765;152;27328;-73
2022/04/24 00:16:43;;;;;;;3.70;3.40;;;14.00;54.40;;;;;;940641;151;27417;-73
2022/04/24 00:19:09;;;;;;;4.27;3.87;;;14.00;54.40;;;;;;940519;151;27340;-73
2022/04/24 00:21:36;;;;;;;4.33;3.93;;;13.90;54.40;;;;;;940651;152;27285;-73
2022/04/24 00:24:03;;;;;;;4.93;4.43;;;13.90;54.40;;;;;;940742;149;27281;-73
2022/04/24 00:26:29;;;;;;;4.20;3.80;;;13.80;54.40;;;;;;940295;150;27377;-73
2022/04/24 00:28:56;;;;;;;3.90;3.60;;;13.80;54.50;;;;;;940694;150;27309;-73
2022/04/24 00:31:22;;;;;;;4.27;3.87;;;13.80;54.50;;;;;;940033;149;27348;-73
2022/04/24 00:33:49;;;;;;;4.00;3.60;;;13.70;54.40;;;;;;940316;152;27453;-73
2022/04/24 00:36:15;;;;;;;4.00;3.70;;;13.70;54.40;;;;;;940256;151;27309;-72
2022/04/24 00:38:42;;;;;;;6.30;3.97;;;13.60;54.40;;;;;;940788;151;27301;-73
2022/04/24 00:41:09;;;;;;;3.93;3.40;;;13.60;54.40;;;;;;940731;152;27320;-73
2022/04/24 00:43:35;;;;;;;3.57;3.27;;;13.60;54.30;;;;;;940596;150;27437;-73
2022/04/24 00:46:11;;;;;;;3.60;3.30;;;13.50;54.40;;;;;;940433;152;27388;-73
2022/04/24 00:48:38;;;;;;;3.83;3.53;;;13.50;54.30;;;;;;940526;152;27892;-73
2022/04/24 00:51:04;;;;;;;4.23;3.07;;;13.50;54.30;;;;;;940510;149;27734;-73
2022/04/24 00:53:32;;;;;;;3.60;3.30;;;13.40;54.20;;;;;;940470;149;27333;-73
2022/04/24 00:55:57;;;;;;;3.37;3.07;;;13.40;54.20;;;;;;940858;149;27352;-73
2022/04/24 00:58:24;;;;;;;3.27;3.00;;;13.40;54.10;;;;;;940820;150;27331;-73
2022/04/24 01:00:52;;;;;;;3.37;3.07;;;13.30;54.10;;;;;;940577;152;27353;-73
2022/04/24 01:03:17;;;;;;;3.40;2.90;;;13.30;54.20;;;;;;940299;149;27332;-73
2022/04/24 01:05:44;;;;;;;4.53;3.43;;;13.30;54.30;;;;;;940867;149;27406;-73
2022/04/24 01:08:10;;;;;;;3.10;2.77;;;13.20;54.20;;;;;;940657;151;27347;-73
2022/04/24 01:10:39;;;;;;;3.20;2.70;;;13.20;54.30;;;;;;940760;152;27405;-73
2022/04/24 01:13:06;;;;;;;3.17;2.87;;;13.20;54.50;;;;;;940026;152;27397;-73
2022/04/24 01:15:32;;;;;;;3.70;3.00;;;13.10;54.40;;;;;;940693;150;27395;-73
2022/04/24 01:17:59;;;;;;;3.47;2.80;;;13.10;54.50;;;;;;940867;149;27254;-73
2022/04/24 01:20:26;;;;;;;3.40;3.10;;;13.10;54.60;;;;;;940554;149;27426;-73
2022/04/24 01:22:52;;;;;;;3.10;2.90;;;13.00;54.60;;;;;;940572;152;27332;-73
2022/04/24 01:25:19;;;;;;;3.07;2.80;;;13.00;54.70;;;;;;941263;149;28901;-73
2022/04/24 01:27:45;;;;;;;2.97;2.77;;;13.00;54.80;;;;;;945113;151;27292;-72
2022/04/24 01:30:12;;;;;;;3.40;3.03;;;13.00;54.80;;;;;;948854;147;27417;-73
2022/04/24 01:32:39;;;;;;;3.37;2.73;;;13.00;54.80;;;;;;948958;147;27356;-73
2022/04/24 01:35:05;;;;;;;3.40;3.10;;;13.00;54.80;;;;;;952659;148;27356;-73
2022/04/24 01:37:32;;;;;;;4.47;2.90;;;13.00;54.90;;;;;;949679;148;27302;-72
2022/04/24 01:39:58;;;;;;;4.40;2.70;;;13.00;54.90;;;;;;948680;148;27267;-73
2022/04/24 01:42:25;;;;;;;2.87;2.67;;;12.90;54.90;;;;;;929374;151;27367;-73
2022/04/24 01:44:52;;;;;;;3.27;3.00;;;13.00;55.00;;;;;;929599;151;27442;-73
2022/04/24 01:47:18;;;;;;;2.90;2.60;;;12.90;55.00;;;;;;928894;151;27496;-73
2022/04/24 01:49:45;;;;;;;2.97;2.77;;;12.90;55.00;;;;;;929468;151;27392;-73
2022/04/24 01:52:12;;;;;;;3.00;2.77;;;12.90;55.00;;;;;;929986;151;27375;-72
2022/04/24 01:54:38;;;;;;;3.33;2.47;;;12.90;55.00;;;;;;929462;151;27410;-73
2022/04/24 01:57:04;;;;;;;2.70;2.50;;;13.00;55.00;;;;;;930002;151;27301;-73
2022/04/24 01:59:31;;;;;;;3.00;2.80;;;12.90;55.10;;;;;;929453;151;27356;-73
2022/04/24 02:01:58;;;;;;;2.73;2.53;;;12.90;55.00;;;;;;929147;151;27404;-73
2022/04/24 02:04:25;;;;;;;2.67;2.47;;;13.00;55.00;;;;;;929357;152;27404;-73
2022/04/24 02:06:51;;;;;;;2.97;2.77;;;13.00;55.00;;;;;;928356;151;27446;-73
2022/04/24 02:09:17;;;;;;;3.37;3.07;;;13.00;55.00;;;;;;929215;151;27389;-73
2022/04/24 02:11:44;;;;;;;2.60;2.40;;;13.00;55.10;;;;;;929229;151;27368;-73
2022/04/24 02:14:11;;;;;;;2.77;2.57;;;13.00;55.00;;;;;;929056;151;27469;-73
2022/04/24 02:16:37;;;;;;;2.77;2.53;;;13.00;55.10;;;;;;948244;148;27372;-73
2022/04/24 02:19:04;;;;;;;3.10;2.70;;;13.00;55.00;;;;;;942181;149;27330;-73
2022/04/24 02:21:31;;;;;;;2.93;2.73;;;13.00;55.00;;;;;;948889;147;27277;-73
2022/04/24 02:23:57;;;;;;;3.03;2.77;;;13.00;55.00;;;;;;948961;147;27391;-73
2022/04/24 02:26:23;;;;;;;2.97;2.67;;;13.00;55.00;;;;;;948564;147;27468;-73
2022/04/24 02:28:50;;;;;;;3.10;2.83;;;13.10;55.00;;;;;;945319;151;27479;-73
2022/04/24 02:31:17;;;;;;;4.90;3.07;;;13.00;55.00;;;;;;931675;153;27416;-73
2022/04/24 02:33:43;;;;;;;3.13;2.93;;;13.10;55.00;;;;;;930334;151;27415;-73
2022/04/24 02:36:10;;;;;;;2.80;2.60;;;13.00;54.90;;;;;;941589;149;27383;-73
2022/04/24 02:38:36;;;;;;;3.70;3.33;;;13.00;55.00;;;;;;948757;148;27357;-73
2022/04/24 02:41:03;;;;;;;3.87;3.23;;;13.00;54.90;;;;;;948709;151;27348;-72
2022/04/24 02:43:30;;;;;;;4.57;3.03;;;13.00;54.90;;;;;;948466;151;27380;-72
2022/04/24 02:45:56;;;;;;;3.53;3.23;;;13.00;54.90;;;;;;948565;148;27327;-72
2022/04/24 02:48:26;;;;;;;3.30;3.00;;;13.00;54.90;;;;;;948320;151;27370;-72
2022/04/24 02:50:49;;;;;;;3.20;2.90;;;13.10;54.90;;;;;;947552;148;27410;-72
2022/04/24 02:53:16;;;;;;;3.07;2.77;;;13.10;54.90;;;;;;948392;148;27449;-71
2022/04/24 02:55:43;;;;;;;3.30;3.00;;;13.10;54.90;;;;;;948089;148;27345;-72
2022/04/24 02:58:09;;;;;;;2.83;2.63;;;13.10;54.80;;;;;;948330;148;27938;-72
2022/04/24 03:00:49;;;;;;;3.37;3.07;;;13.10;54.90;;;;;;942155;151;27306;-72
2022/04/24 03:03:12;;;;;;;3.10;2.80;;;13.10;54.80;;;;;;941160;149;27488;-72
2022/04/24 03:05:38;;;;;;;2.90;2.70;;;13.10;54.80;;;;;;941772;149;27369;-72
2022/04/24 03:08:05;;;;;;;4.13;3.33;;;13.10;54.70;;;;;;942250;151;27499;-72
2022/04/24 03:10:32;;;;;;;3.10;2.87;;;13.10;54.80;;;;;;941320;152;27758;-72
2022/04/24 03:12:58;;;;;;;2.70;2.50;;;13.20;54.80;;;;;;941926;152;27394;-73
2022/04/24 03:15:24;;;;;;;2.77;2.57;;;13.20;54.80;;;;;;941758;151;27290;-72
2022/04/24 03:17:54;;;;;;;3.13;2.90;;;13.20;54.90;;;;;;942390;151;27350;-73
2022/04/24 03:20:18;;;;;;;2.80;2.60;;;13.20;54.80;;;;;;941438;152;27875;-72
2022/04/24 03:22:44;;;;;;;3.00;2.70;;;13.20;54.70;;;;;;942094;151;27293;-72
2022/04/24 03:25:11;;;;;;;2.73;2.53;;;13.20;54.70;;;;;;941856;149;27318;-72
2022/04/24 03:27:37;;;;;;;2.90;2.70;;;13.30;54.80;;;;;;943631;149;27373;-73
2022/04/24 03:30:04;;;;;;;3.47;3.17;;;13.30;54.70;;;;;;944366;149;27420;-73
2022/04/24 03:32:33;;;;;;;3.90;3.10;;;13.30;54.70;;;;;;944139;149;27372;-72
2022/04/24 03:35:00;;;;;;;3.40;3.10;;;13.30;54.70;;;;;;943724;149;27447;-73
2022/04/24 03:37:26;;;;;;;3.20;2.90;;;13.30;54.70;;;;;;943780;149;27380;-72
2022/04/24 03:39:53;;;;;;;3.97;3.23;;;13.30;54.80;;;;;;943927;149;27298;-73
2022/04/24 03:42:19;;;;;;;3.30;3.00;;;13.30;54.80;;;;;;943711;149;27322;-73
2022/04/24 03:44:46;;;;;;;3.13;2.93;;;13.30;54.80;;;;;;944020;149;27458;-72
2022/04/24 03:47:14;;;;;;;3.23;3.00;;;13.40;54.80;;;;;;944167;149;28748;-72
2022/04/24 03:49:39;;;;;;;2.93;2.73;;;13.40;54.80;;;;;;943722;149;27305;-72
2022/04/24 03:52:06;;;;;;;3.70;3.40;;;13.40;54.80;;;;;;944026;149;27339;-72
2022/04/24 03:54:32;;;;;;;2.93;2.73;;;13.40;54.80;;;;;;943443;149;27357;-72
2022/04/24 03:56:59;;;;;;;2.87;2.67;;;13.40;54.80;;;;;;943919;149;27474;-72
2022/04/24 03:59:25;;;;;;;3.47;3.20;;;13.40;54.80;;;;;;944428;149;27459;-73
2022/04/24 04:01:52;;;;;;;3.10;2.90;;;13.40;54.80;;;;;;943350;149;27413;-72
2022/04/24 04:04:19;;;;;;;3.27;3.07;;;13.40;54.90;;;;;;943918;149;27507;-72
2022/04/24 04:06:45;;;;;;;3.43;3.13;;;13.40;55.00;;;;;;943693;149;27322;-72
2022/04/24 04:09:12;;;;;;;3.27;2.97;;;13.40;54.90;;;;;;943876;149;27514;-72
2022/04/24 04:11:38;;;;;;;3.57;3.27;;;13.40;54.90;;;;;;944133;149;27482;-73
2022/04/24 04:14:05;;;;;;;3.60;3.30;;;13.40;54.90;;;;;;944188;149;27336;-72
2022/04/24 04:16:32;;;;;;;3.00;2.80;;;13.40;54.90;;;;;;943573;149;27361;-73
2022/04/24 04:18:58;;;;;;;3.23;3.00;;;13.40;55.00;;;;;;944451;149;27421;-72
2022/04/24 04:21:25;;;;;;;3.00;2.80;;;13.40;55.00;;;;;;944075;149;27345;-73
2022/04/24 04:23:51;;;;;;;3.57;3.27;;;13.40;55.10;;;;;;943942;149;27404;-72
2022/04/24 04:26:18;;;;;;;3.53;2.70;;;13.40;55.10;;;;;;943919;149;27385;-72
2022/04/24 04:28:45;;;;;;;3.27;2.97;;;13.40;55.10;;;;;;939378;150;27384;-72
2022/04/24 04:31:11;;;;;;;3.20;2.90;;;13.40;55.20;;;;;;939385;150;27338;-72
2022/04/24 04:33:38;;;;;;;3.67;3.23;;;13.50;55.30;;;;;;938986;150;27347;-73
2022/04/24 04:36:04;;;;;;;3.17;2.97;;;13.50;55.30;;;;;;939121;150;27996;-72
2022/04/24 04:38:31;;;;;;;3.40;3.10;;;13.50;55.30;;;;;;938812;150;27458;-73
2022/04/24 04:40:58;;;;;;;3.20;3.00;;;13.50;55.30;;;;;;939094;150;27724;-73
2022/04/24 04:43:27;;;;;;;3.80;3.50;;;13.50;55.40;;;;;;939769;150;27431;-72
2022/04/24 04:45:54;;;;;;;3.50;3.20;;;13.50;54.80;;;;;;938665;150;27317;-72
2022/04/24 04:48:20;;;;;;;3.30;2.97;;;13.50;55.40;;;;;;939509;150;27385;-72
2022/04/24 04:50:47;;;;;;;3.40;3.20;;;13.50;55.50;;;;;;938944;150;27368;-73
2022/04/24 04:53:13;;;;;;;3.33;3.03;;;13.60;55.50;;;;;;939723;150;27322;-72
2022/04/24 04:55:40;;;;;;;3.60;3.30;;;13.60;55.60;;;;;;939362;150;27430;-72
2022/04/24 04:58:07;;;;;;;3.73;3.27;;;13.60;55.50;;;;;;939394;149;27331;-73
2022/04/24 05:00:33;;;;;;;3.90;3.50;;;13.60;55.50;;;;;;939391;150;27408;-73
2022/04/24 05:03:00;;;;;;;3.67;3.37;;;13.60;55.50;;;;;;939224;150;27499;-72
2022/04/24 05:05:26;;;;;;;4.03;3.73;;;13.60;55.50;;;;;;939163;149;27449;-72
2022/04/24 05:07:53;;;;;;;3.70;3.40;;;13.60;55.50;;;;;;938954;150;27302;-72
2022/04/24 05:10:19;;;;;;;4.00;3.60;;;13.60;55.50;;;;;;939026;150;27571;-72
2022/04/24 05:12:46;;;;;;;4.17;3.47;;;13.60;55.60;;;;;;938971;149;27339;-73
2022/04/24 05:15:13;;;;;;;3.90;3.50;;;13.70;55.60;;;;;;939041;150;27381;-72
2022/04/24 05:17:39;;;;;;;3.47;3.27;;;13.60;55.70;;;;;;939200;150;27475;-72
2022/04/24 05:20:06;;;;;;;3.50;3.20;;;13.70;55.80;;;;;;938992;150;27330;-72
2022/04/24 05:22:33;;;;;;;3.70;3.40;;;13.70;55.90;;;;;;939732;150;27372;-72
2022/04/24 05:24:59;;;;;;;4.00;3.40;;;13.70;55.90;;;;;;939162;150;27315;-73
2022/04/24 05:27:26;;;;;;;3.33;3.13;;;13.70;56.00;;;;;;940038;150;27446;-73
2022/04/24 05:29:52;;;;;;;3.77;3.47;;;13.70;56.00;;;;;;939139;150;27451;-72
2022/04/24 05:32:19;;;;;;;4.03;3.73;;;13.70;56.60;;;;;;939507;150;29090;-72
2022/04/24 05:34:45;;;;;;;3.77;3.33;;;13.70;56.00;;;;;;938872;150;27287;-73
2022/04/24 05:37:12;;;;;;;4.17;3.80;;;13.80;56.20;;;;;;938822;150;27346;-73
2022/04/24 05:39:39;;;;;;;3.80;3.50;;;13.80;56.90;;;;;;939387;150;27355;-72
2022/04/24 05:42:05;;;;;;;3.77;3.47;;;13.80;56.20;;;;;;938714;150;28109;-72
2022/04/24 05:44:32;;;;;;;3.83;3.53;;;13.90;56.20;;;;;;938806;150;27491;-72
2022/04/24 05:46:59;;;;;;;4.27;3.90;;;13.90;56.30;;;;;;939133;150;27314;-72
2022/04/24 05:49:25;;;;;;;4.13;3.83;;;14.00;56.40;;;;;;939092;150;27337;-72
2022/04/24 05:51:52;;;;;;;3.80;3.50;;;14.10;56.40;;;;;;939407;150;27345;-73
2022/04/24 05:54:18;;;;;;;3.93;3.53;;;14.20;56.50;;;;;;939038;150;27369;-72
2022/04/24 05:56:45;;;;;;;3.87;3.57;;;14.30;56.30;;;;;;939100;150;27390;-73
2022/04/24 05:59:11;;;;;;;4.30;3.90;;;14.40;56.30;;;;;;937880;150;27353;-73
2022/04/24 06:01:38;;;;;;;3.97;3.57;;;14.50;56.20;;;;;;939005;150;27331;-72
2022/04/24 06:04:04;;;;;;;6.03;3.93;;;14.60;56.20;;;;;;938963;150;27357;-72
2022/04/24 06:06:32;;;;;;;4.27;3.90;;;14.60;56.00;;;;;;938953;150;27354;-73
2022/04/24 06:08:58;;;;;;;4.10;3.80;;;14.70;55.90;;;;;;939546;150;27455;-72
2022/04/24 06:11:24;;;;;;;4.80;3.93;;;14.80;55.80;;;;;;940095;150;27395;-72
2022/04/24 06:13:51;;;;;;;4.00;3.70;;;14.80;55.70;;;;;;922656;150;27346;-72
2022/04/24 06:16:17;;;;;;;4.93;4.17;;;14.90;55.70;;;;;;944055;148;27310;-72
2022/04/24 06:18:44;;;;;;;4.17;3.87;;;14.90;55.60;;;;;;943777;148;27368;-71
2022/04/24 06:21:11;;;;;;;4.20;3.80;;;15.00;55.50;;;;;;944016;148;28095;-72
2022/04/24 06:23:37;;;;;;;3.70;3.40;;;15.00;55.40;;;;;;945399;149;27325;-72
2022/04/24 06:26:04;;;;;;;4.33;3.93;;;15.00;55.30;;;;;;948808;147;27320;-72
2022/04/24 06:28:30;;;;;;;4.87;3.73;;;15.00;55.30;;;;;;927302;150;27414;-72
2022/04/24 06:30:57;;;;;;;4.30;3.90;;;15.00;55.30;;;;;;944449;148;27356;-71
2022/04/24 06:33:24;;;;;;;4.00;3.70;;;15.00;55.30;;;;;;926781;150;27367;-71
2022/04/24 06:35:50;;;;;;;3.97;3.67;;;15.00;55.30;;;;;;943840;148;27439;-71
2022/04/24 06:38:17;;;;;;;3.90;3.60;;;15.00;55.40;;;;;;945247;148;27348;-72
2022/04/24 06:40:45;;;;;;;3.90;3.60;;;15.00;55.40;;;;;;944332;148;27880;-72
2022/04/24 06:43:10;;;;;;;4.43;4.03;;;15.00;56.10;;;;;;943891;148;27443;-72
2022/04/24 06:45:39;;;;;;;5.03;4.60;;;15.00;55.40;;;;;;948535;147;27417;-72
2022/04/24 06:48:11;;;;;;;4.70;4.30;;;14.90;55.50;;;;;;927611;150;27424;-72
2022/04/24 06:50:38;;;;;;;4.80;4.40;;;14.90;55.50;;;;;;944004;148;27316;-72
2022/04/24 06:53:05;;;;;;;5.20;4.70;;;14.90;55.60;;;;;;943952;148;27329;-72
2022/04/24 06:55:31;;;;;;;4.67;4.27;;;14.90;55.70;;;;;;943620;148;27357;-71
2022/04/24 06:57:58;;;;;;;5.43;4.93;;;14.90;55.80;;;;;;944220;148;27353;-72
2022/04/24 07:00:24;;;;;;;4.97;4.63;;;14.90;56.00;;;;;;944635;148;27385;-72
2022/04/24 07:02:51;;;;;;;5.03;4.63;;;14.90;56.00;;;;;;944677;148;27329;-72
2022/04/24 07:05:18;;;;;;;4.63;4.33;;;14.90;56.10;;;;;;943416;148;27407;-72
2022/04/24 07:07:44;;;;;;;4.73;4.33;;;15.00;56.20;;;;;;945034;148;27353;-72
2022/04/24 07:10:11;;;;;;;4.83;4.43;;;15.00;56.20;;;;;;944798;148;27349;-72
2022/04/24 07:12:49;;;;;;;4.77;4.37;;;15.10;56.30;;;;;;946105;149;27286;-72
2022/04/24 07:15:17;;;;;;;5.47;4.83;;;15.20;56.20;;;;;;945608;149;27308;-72
2022/04/24 07:17:42;;;;;;;4.40;4.10;;;15.20;56.10;;;;;;945973;149;27287;-72
2022/04/24 07:20:09;;;;;;;5.40;4.17;;;15.30;56.10;;;;;;927686;152;27495;-72
2022/04/24 07:22:50;;;;;;;4.80;4.00;;;15.40;56.10;;;;;;938365;150;27344;-72
2022/04/24 07:25:17;;;;;;;5.20;4.70;;;15.50;56.20;;;;;;938235;150;27321;-72
2022/04/24 07:27:43;;;;;;;4.90;4.40;;;15.60;56.30;;;;;;944326;151;27428;-72
2022/04/24 07:30:19;;;;;;;4.77;4.37;;;15.70;56.40;;;;;;946597;149;27351;-72
2022/04/24 07:32:49;;;;;;;5.28;4.78;;;15.80;56.60;;;;;;946192;148;27337;-72
2022/04/24 07:35:18;;;;;;;4.62;4.22;;;16.00;56.70;;;;;;944893;149;27452;-72
2022/04/24 07:37:45;;;;;;;5.15;4.75;;;16.30;56.70;;;;;;945002;151;27337;-71
2022/04/24 07:40:11;;;;;;;4.60;4.15;;;16.50;56.90;;;;;;926389;150;27357;-72
2022/04/24 07:42:53;;;;;;;4.90;4.50;;;16.80;56.90;;;;;;947809;148;27394;-73
2022/04/24 07:45:25;;;;;;;5.65;4.85;;;17.10;56.60;;;;;;948153;148;27344;-72
2022/04/24 07:47:54;;;;;;;5.78;5.28;;;17.40;56.00;;;;;;948111;151;27332;-72
2022/04/24 07:50:21;;;;;;;6.53;4.80;;;17.70;55.60;;;;;;951278;147;27694;-72
2022/04/24 07:52:47;;;;;;;4.70;4.30;;;17.90;55.20;;;;;;941616;149;27411;-71
2022/04/24 07:55:15;;;;;;;4.58;4.17;;;18.00;54.80;;;;;;941856;149;27467;-72
2022/04/24 07:57:40;;;;;;;5.05;4.62;;;18.20;54.60;;;;;;940007;152;27369;-72
2022/04/24 08:00:07;;;;;;;4.83;4.40;;;18.30;54.50;;;;;;940525;149;27410;-73
2022/04/24 08:02:34;;;;;;;4.65;4.35;;;18.30;54.40;;;;;;940974;149;27350;-72
2022/04/24 08:05:00;;;;;;;4.30;3.98;;;18.50;54.30;;;;;;939577;149;27322;-72
2022/04/24 08:07:27;;;;;;;4.30;4.00;;;18.60;54.20;;;;;;942238;149;27477;-72
2022/04/24 08:09:53;;;;;;;4.62;4.33;;;18.70;54.00;;;;;;941834;152;27369;-72
2022/04/24 08:12:20;;;;;;;4.75;4.25;;;18.80;54.00;;;;;;941555;152;27418;-72
2022/04/24 08:14:47;;;;;;;4.47;4.08;;;18.80;53.60;;;;;;941138;149;27341;-73
2022/04/24 08:17:13;;;;;;;5.05;4.65;;;18.90;52.60;;;;;;942311;149;27329;-73
2022/04/24 08:19:40;;;;;;;5.05;4.60;;;19.00;53.00;;;;;;942399;149;27454;-72
2022/04/24 08:22:06;;;;;;;4.22;3.90;;;19.00;52.80;;;;;;941939;151;27473;-71
2022/04/24 08:24:33;;;;;;;4.33;4.03;;;19.10;52.90;;;;;;941989;152;27349;-71
2022/04/24 08:27:00;;;;;;;4.40;4.00;;;19.20;53.30;;;;;;941544;149;27326;-71
2022/04/24 08:29:26;;;;;;;5.15;4.65;;;19.20;52.60;;;;;;940841;150;27404;-72
2022/04/24 08:31:53;;;;;;;4.60;4.20;;;19.30;52.40;;;;;;938948;150;27330;-72
2022/04/24 08:34:19;;;;;;;4.28;3.95;;;19.30;52.30;;;;;;938775;150;27466;-73
2022/04/24 08:36:46;;;;;;;4.25;3.77;;;19.40;52.20;;;;;;938455;150;27364;-72
2022/04/24 08:39:13;;;;;;;4.25;3.95;;;19.40;52.10;;;;;;938865;150;27426;-73
2022/04/24 08:41:40;;;;;;;4.17;3.87;;;19.50;52.10;;;;;;938458;150;27388;-72
2022/04/24 08:44:06;;;;;;;6.10;4.33;;;19.50;52.00;;;;;;938032;150;27716;-73
2022/04/24 08:46:32;;;;;;;4.50;4.10;;;19.50;51.70;;;;;;938956;150;27358;-73
2022/04/24 08:48:59;;;;;;;4.15;3.85;;;19.60;51.80;;;;;;944104;148;27360;-72
2022/04/24 08:51:25;;;;;;;4.58;4.22;;;19.60;51.80;;;;;;943187;148;27312;-72
2022/04/24 08:53:52;;;;;;;4.40;4.10;;;19.60;51.70;;;;;;943240;148;27258;-72
2022/04/24 08:56:19;;;;;;;5.05;4.65;;;19.60;51.60;;;;;;944671;148;27317;-73
2022/04/24 08:58:45;;;;;;;4.70;4.40;;;19.70;51.50;;;;;;944110;148;27429;-73
2022/04/24 09:01:12;;;;;;;4.65;4.35;;;19.60;51.20;;;;;;944625;148;27352;-72
2022/04/24 09:03:38;;;;;;;5.15;4.60;;;19.60;51.00;;;;;;944221;148;28454;-72
2022/04/24 09:06:05;;;;;;;5.28;4.87;;;19.60;51.00;;;;;;943775;148;27305;-72
2022/04/24 09:08:35;;;;;;;4.95;4.55;;;19.50;50.90;;;;;;943974;148;27329;-72
2022/04/24 09:10:58;;;;;;;5.20;4.70;;;19.40;50.90;;;;;;943624;148;27282;-73
2022/04/24 09:13:30;;;;;;;5.55;5.12;;;19.40;51.00;;;;;;943868;148;27332;-73
2022/04/24 09:15:57;;;;;;;4.95;4.55;;;19.30;51.10;;;;;;943846;148;27469;-72
2022/04/24 09:18:24;;;;;;;5.67;5.17;;;19.30;51.10;;;;;;943881;148;27314;-72
2022/04/24 09:20:56;;;;;;;4.90;4.50;;;19.30;51.20;;;;;;942998;148;27277;-73
2022/04/24 09:23:22;;;;;;;5.50;5.00;;;19.30;51.20;;;;;;944330;148;27387;-73
2022/04/24 09:25:49;;;;;;;4.92;4.53;;;19.30;51.40;;;;;;940671;149;27362;-72
2022/04/24 09:28:16;;;;;;;4.55;4.25;;;19.30;51.30;;;;;;942229;149;27939;-72
2022/04/24 09:30:48;;;;;;;5.40;4.90;;;19.40;51.40;;;;;;942276;149;27388;-73
2022/04/24 09:33:15;;;;;;;5.12;4.72;;;19.50;51.50;;;;;;943427;149;27358;-72
2022/04/24 09:35:42;;;;;;;5.28;4.78;;;19.60;51.60;;;;;;942410;149;27357;-72
2022/04/24 09:38:08;;;;;;;4.97;4.58;;;19.70;51.70;;;;;;942548;149;27373;-72
2022/04/24 09:40:37;;;;;;;5.05;4.70;;;19.90;51.70;;;;;;941803;149;27310;-72
2022/04/24 09:43:04;;;;;;;5.47;4.97;;;20.10;51.50;;;;;;941148;149;27391;-72
2022/04/24 09:45:31;;;;;;;5.35;4.90;;;20.20;51.20;;;;;;942785;149;27356;-72
2022/04/24 09:47:58;;;;;;;5.78;4.80;;;20.30;50.90;;;;;;942431;149;27278;-72
2022/04/24 09:50:24;;;;;;;5.35;4.45;;;20.40;50.60;;;;;;942354;149;27458;-73
2022/04/24 09:52:50;;;;;;;5.35;4.87;;;20.50;50.30;;;;;;941969;148;27524;-72
2022/04/24 09:55:17;;;;;;;4.17;3.87;;;20.50;50.10;;;;;;942163;149;27344;-72
2022/04/24 09:57:44;;;;;;;5.45;4.95;;;20.50;50.00;;;;;;942108;149;27361;-72
2022/04/24 10:00:11;;;;;;;4.87;4.47;;;20.40;49.90;;;;;;942411;149;27466;-73
2022/04/24 10:02:37;;;;;;;5.17;4.75;;;20.40;49.80;;;;;;941927;149;27370;-72
2022/04/24 10:05:04;;;;;;;5.00;4.60;;;20.40;49.90;;;;;;941918;149;27455;-72
2022/04/24 10:07:30;;;;;;;5.28;4.87;;;20.40;49.90;;;;;;942112;149;27329;-72
2022/04/24 10:09:57;;;;;;;5.62;5.12;;;20.30;49.60;;;;;;942599;149;27413;-73
2022/04/24 10:12:23;;;;;;;4.90;4.50;;;20.30;49.60;;;;;;942767;149;27330;-72
2022/04/24 10:14:56;;;;;;;4.87;4.47;;;20.20;49.60;;;;;;942596;149;27379;-73
2022/04/24 10:17:35;;;;;;;4.83;4.42;;;20.10;49.60;;;;;;943513;149;27377;-72
2022/04/24 10:20:20;;;;;;;5.40;4.92;;;20.00;49.60;;;;;;941982;149;27483;-72
2022/04/24 10:22:47;;;;;;;5.53;4.30;;;19.90;49.60;;;;;;942489;149;27385;-72
2022/04/24 10:25:15;;;;;;;5.10;4.70;;;19.80;49.80;;;;;;942166;149;27639;-73
2022/04/24 10:27:40;;;;;;;5.00;4.60;;;19.80;49.90;;;;;;941982;149;27351;-72
2022/04/24 10:30:06;;;;;;;5.08;4.65;;;19.70;50.00;;;;;;941030;149;27290;-72
2022/04/24 10:32:33;;;;;;;5.22;4.72;;;19.60;50.00;;;;;;944335;148;27876;-73
2022/04/24 10:35:00;;;;;;;4.92;4.53;;;19.60;50.00;;;;;;946140;148;27387;-72
2022/04/24 10:37:26;;;;;;;5.92;4.97;;;19.60;50.10;;;;;;946071;148;27363;-73
2022/04/24 10:39:57;;;;;;;4.60;4.20;;;19.50;50.20;;;;;;946808;149;27277;-72
2022/04/24 10:42:22;;;;;;;5.28;4.87;;;19.40;50.20;;;;;;946555;148;27345;-72
2022/04/24 10:44:52;;;;;;;5.92;5.42;;;19.40;50.10;;;;;;945388;148;27360;-73
2022/04/24 10:47:18;;;;;;;5.85;5.25;;;19.30;50.10;;;;;;947016;148;27384;-72
2022/04/24 10:49:44;;;;;;;5.70;5.20;;;19.30;50.10;;;;;;947384;148;27430;-72
2022/04/24 10:52:11;;;;;;;6.60;5.95;;;19.20;50.20;;;;;;947592;148;27341;-72
2022/04/24 10:54:38;;;;;;;5.65;5.15;;;19.20;50.20;;;;;;947566;148;27732;-73
2022/04/24 10:57:23;;;;;;;5.40;5.00;;;19.10;50.20;;;;;;946976;148;27673;-73
2022/04/24 10:59:51;;;;;;;5.75;5.25;;;19.10;50.30;;;;;;946450;148;27500;-73
2022/04/24 11:02:19;;;;;;;5.67;5.20;;;19.00;50.30;;;;;;947043;148;27368;-72
2022/04/24 11:04:45;;;;;;;5.58;5.12;;;18.90;50.20;;;;;;947234;148;27449;-72
2022/04/24 11:07:12;;;;;;;6.20;5.05;;;18.90;50.40;;;;;;945481;148;27477;-73
2022/04/24 11:09:38;;;;;;;5.50;5.10;;;18.80;50.50;;;;;;945483;148;27798;-73
2022/04/24 11:12:08;;;;;;;5.10;4.60;;;18.80;50.60;;;;;;947761;148;27385;-72
2022/04/24 11:14:34;;;;;;;6.10;5.58;;;18.80;50.70;;;;;;946487;148;27466;-72
2022/04/24 11:17:01;;;;;;;4.67;4.28;;;18.80;50.90;;;;;;945293;148;27326;-73
2022/04/24 11:19:28;;;;;;;4.83;4.47;;;18.80;51.00;;;;;;947109;149;27433;-72
2022/04/24 11:21:57;;;;;;;5.80;5.30;;;18.80;51.10;;;;;;945933;148;27337;-72
2022/04/24 11:24:29;;;;;;;5.70;5.10;;;18.90;50.90;;;;;;947226;148;27383;-72
2022/04/24 11:26:56;;;;;;;5.50;5.00;;;18.90;50.90;;;;;;946212;148;27359;-72
2022/04/24 11:29:22;;;;;;;5.80;4.80;;;18.90;50.80;;;;;;947678;148;27411;-72
2022/04/24 11:31:54;;;;;;;5.50;5.08;;;18.90;50.80;;;;;;946093;148;28165;-73
2022/04/24 11:34:19;;;;;;;5.00;4.60;;;19.00;50.90;;;;;;941769;149;27373;-71
2022/04/24 11:36:45;;;;;;;5.72;5.00;;;19.00;51.30;;;;;;942311;149;27338;-72
2022/04/24 11:39:12;;;;;;;6.17;5.67;;;19.10;50.70;;;;;;942504;149;27353;-72
2022/04/24 11:41:39;;;;;;;5.37;4.97;;;19.10;51.20;;;;;;942777;149;27322;-72
2022/04/24 11:52:04;;;;;;;5.47;4.97;;;19.20;50.30;;;;;;942318;149;27479;-72
2022/04/24 11:54:31;;;;;;;5.60;4.83;;;19.20;50.30;;;;;;941594;149;27358;-72
2022/04/24 11:56:57;;;;;;;5.45;4.95;;;19.20;50.30;;;;;;942910;149;27326;-72
2022/04/24 11:59:24;;;;;;;5.90;5.05;;;19.20;50.30;;;;;;942299;149;27430;-72
2022/04/24 12:01:56;;;;;;;5.90;5.10;;;19.20;50.30;;;;;;942673;149;27393;-73
2022/04/24 12:04:22;;;;;;;5.87;5.25;;;19.30;50.50;;;;;;941596;149;27435;-72
2022/04/24 12:06:49;;;;;;;5.20;4.80;;;19.30;50.60;;;;;;942340;149;27310;-72
2022/04/24 12:09:16;;;;;;;4.83;4.42;;;19.40;50.50;;;;;;942697;149;27310;-72
2022/04/24 12:11:42;;;;;;;5.83;5.42;;;19.50;50.50;;;;;;942162;149;27371;-73
2022/04/24 12:14:10;;;;;;;5.70;5.15;;;19.60;50.40;;;;;;942240;149;27439;-73
2022/04/24 12:16:35;;;;;;;6.17;5.67;;;19.70;50.40;;;;;;941987;149;27349;-72
2022/04/24 12:19:03;;;;;;;5.00;4.50;;;19.90;50.30;;;;;;941803;149;27369;-72
2022/04/24 12:21:31;;;;;;;5.50;5.05;;;20.10;50.30;;;;;;941810;149;27549;-72
2022/04/24 12:23:55;;;;;;;5.37;4.97;;;20.20;49.90;;;;;;941900;149;27826;-72
2022/04/24 12:26:22;;;;;;;5.60;5.20;;;20.30;49.80;;;;;;942770;149;27291;-73
2022/04/24 12:28:48;;;;;;;5.22;4.83;;;20.40;49.40;;;;;;942243;149;27369;-72
2022/04/24 12:31:24;;;;;;;4.60;4.25;;;20.50;49.20;;;;;;942278;149;27470;-72
2022/04/24 12:33:53;;;;;;;6.12;5.62;;;20.60;49.00;;;;;;931981;151;28037;-72
2022/04/24 12:36:20;;;;;;;9.20;5.22;;;20.60;48.60;;;;;;946064;148;27312;-72
2022/04/24 12:38:58;;;;;;;5.55;5.15;;;20.70;48.50;;;;;;929576;153;27329;-73
2022/04/24 12:41:28;;;;;;;6.05;5.55;;;20.70;48.40;;;;;;929272;151;27406;-73
2022/04/24 12:43:54;;;;;;;5.85;5.35;;;20.70;48.20;;;;;;929551;152;27355;-72
2022/04/24 12:46:21;;;;;;;6.25;5.65;;;20.60;48.70;;;;;;928679;151;27339;-73
2022/04/24 12:48:50;;;;;;;5.55;5.15;;;20.50;48.00;;;;;;929685;152;27339;-72
2022/04/24 12:51:17;;;;;;;6.15;5.60;;;20.50;47.90;;;;;;945164;149;27458;-72
2022/04/24 12:53:43;;;;;;;5.87;5.37;;;20.40;47.90;;;;;;945405;151;27347;-72
2022/04/24 12:56:10;;;;;;;6.30;5.80;;;20.30;47.90;;;;;;945091;151;27425;-73